sensor_id;sensor_type;location;lat;lon;timestamp;P1;durP1;ratioP1;P2;durP2;ratioP2
69979;SDS011;57318;56.232;43.944;2022-07-06T00:02:03;2.73;;;2.17;;
69979;SDS011;57318;56.232;43.944;2022-07-06T00:04:29;3.17;;;2.23;;
69979;SDS011;57318;56.232;43.944;2022-07-06T00:06:55;5.33;;;2.33;;
69979;SDS011;57318;56.232;43.944;2022-07-06T00:09:21;2.33;;;2.13;;
69979;SDS011;57318;56.232;43.944;2022-07-06T00:11:46;2.33;;;2.13;;
69979;SDS011;57318;56.232;43.944;2022-07-06T00:14:12;4.07;;;2.30;;
69979;SDS011;57318;56.232;43.944;2022-07-06T00:16:38;6.67;;;2.60;;
69979;SDS011;57318;56.232;43.944;2022-07-06T00:19:03;3.20;;;2.43;;
69979;SDS011;57318;56.232;43.944;2022-07-06T00:21:29;3.93;;;2.40;;
69979;SDS011;57318;56.232;43.944;2022-07-06T00:23:55;2.63;;;2.30;;
69979;SDS011;57318;56.232;43.944;2022-07-06T00:26:20;3.13;;;2.37;;
69979;SDS011;57318;56.232;43.944;2022-07-06T00:28:46;5.47;;;2.50;;
69979;SDS011;57318;56.232;43.944;2022-07-06T00:31:12;2.43;;;1.90;;
69979;SDS011;57318;56.232;43.944;2022-07-06T00:33:37;4.40;;;2.30;;
69979;SDS011;57318;56.232;43.944;2022-07-06T00:36:03;4.23;;;2.50;;
69979;SDS011;57318;56.232;43.944;2022-07-06T00:38:29;5.65;;;2.47;;
69979;SDS011;57318;56.232;43.944;2022-07-06T00:40:55;4.77;;;2.40;;
69979;SDS011;57318;56.232;43.944;2022-07-06T00:43:21;5.20;;;2.57;;
69979;SDS011;57318;56.232;43.944;2022-07-06T00:45:46;3.60;;;2.37;;
69979;SDS011;57318;56.232;43.944;2022-07-06T00:48:12;4.53;;;2.20;;
69979;SDS011;57318;56.232;43.944;2022-07-06T00:50:38;5.30;;;2.33;;
69979;SDS011;57318;56.232;43.944;2022-07-06T00:53:05;3.78;;;2.25;;
69979;SDS011;57318;56.232;43.944;2022-07-06T00:55:38;4.35;;;2.28;;
69979;SDS011;57318;56.232;43.944;2022-07-06T00:58:05;2.67;;;2.30;;
69979;SDS011;57318;56.232;43.944;2022-07-06T01:00:32;4.55;;;2.45;;
69979;SDS011;57318;56.232;43.944;2022-07-06T01:02:58;5.43;;;2.72;;
69979;SDS011;57318;56.232;43.944;2022-07-06T01:05:24;3.77;;;2.40;;
69979;SDS011;57318;56.232;43.944;2022-07-06T01:07:50;4.35;;;2.40;;
69979;SDS011;57318;56.232;43.944;2022-07-06T01:10:18;5.43;;;2.40;;
69979;SDS011;57318;56.232;43.944;2022-07-06T01:12:45;4.47;;;2.70;;
69979;SDS011;57318;56.232;43.944;2022-07-06T01:15:13;3.80;;;2.22;;
69979;SDS011;57318;56.232;43.944;2022-07-06T01:17:41;3.15;;;2.30;;
69979;SDS011;57318;56.232;43.944;2022-07-06T01:20:08;4.93;;;2.15;;
69979;SDS011;57318;56.232;43.944;2022-07-06T01:22:38;2.85;;;2.47;;
69979;SDS011;57318;56.232;43.944;2022-07-06T01:25:04;4.17;;;2.40;;
69979;SDS011;57318;56.232;43.944;2022-07-06T01:27:34;5.00;;;2.15;;
69979;SDS011;57318;56.232;43.944;2022-07-06T01:30:05;7.93;;;2.25;;
69979;SDS011;57318;56.232;43.944;2022-07-06T01:32:32;4.90;;;2.40;;
69979;SDS011;57318;56.232;43.944;2022-07-06T01:34:59;3.20;;;2.60;;
69979;SDS011;57318;56.232;43.944;2022-07-06T01:37:25;3.80;;;2.90;;
69979;SDS011;57318;56.232;43.944;2022-07-06T01:39:51;3.90;;;2.47;;
69979;SDS011;57318;56.232;43.944;2022-07-06T01:42:16;6.00;;;2.47;;
69979;SDS011;57318;56.232;43.944;2022-07-06T01:44:43;4.85;;;2.40;;
69979;SDS011;57318;56.232;43.944;2022-07-06T01:47:09;3.60;;;2.30;;
69979;SDS011;57318;56.232;43.944;2022-07-06T01:52:02;5.50;;;2.50;;
69979;SDS011;57318;56.232;43.944;2022-07-06T01:54:28;3.85;;;2.40;;
69979;SDS011;57318;56.232;43.944;2022-07-06T01:56:54;2.28;;;2.08;;
69979;SDS011;57318;56.232;43.944;2022-07-06T01:59:19;4.67;;;2.50;;
69979;SDS011;57318;56.232;43.944;2022-07-06T02:01:45;3.60;;;2.30;;
69979;SDS011;57318;56.232;43.944;2022-07-06T02:04:11;3.63;;;2.37;;
69979;SDS011;57318;56.232;43.944;2022-07-06T02:06:36;2.60;;;2.30;;
69979;SDS011;57318;56.232;43.944;2022-07-06T02:09:02;4.97;;;2.40;;
69979;SDS011;57318;56.232;43.944;2022-07-06T02:11:28;2.80;;;2.33;;
69979;SDS011;57318;56.232;43.944;2022-07-06T02:13:54;2.10;;;1.90;;
69979;SDS011;57318;56.232;43.944;2022-07-06T02:16:19;5.27;;;2.20;;
69979;SDS011;57318;56.232;43.944;2022-07-06T02:18:45;2.50;;;2.30;;
69979;SDS011;57318;56.232;43.944;2022-07-06T02:21:11;6.63;;;2.57;;
69979;SDS011;57318;56.232;43.944;2022-07-06T02:23:36;3.03;;;2.53;;
69979;SDS011;57318;56.232;43.944;2022-07-06T02:26:02;4.22;;;2.33;;
69979;SDS011;57318;56.232;43.944;2022-07-06T02:28:29;2.42;;;2.15;;
69979;SDS011;57318;56.232;43.944;2022-07-06T02:30:56;4.20;;;2.60;;
69979;SDS011;57318;56.232;43.944;2022-07-06T02:33:22;4.50;;;2.30;;
69979;SDS011;57318;56.232;43.944;2022-07-06T02:35:47;4.97;;;2.70;;
69979;SDS011;57318;56.232;43.944;2022-07-06T02:38:13;2.60;;;2.30;;
69979;SDS011;57318;56.232;43.944;2022-07-06T02:40:39;4.73;;;2.60;;
69979;SDS011;57318;56.232;43.944;2022-07-06T02:43:05;4.82;;;2.47;;
69979;SDS011;57318;56.232;43.944;2022-07-06T02:45:31;3.60;;;2.65;;
69979;SDS011;57318;56.232;43.944;2022-07-06T02:47:57;3.28;;;2.20;;
69979;SDS011;57318;56.232;43.944;2022-07-06T02:50:23;3.30;;;2.22;;
69979;SDS011;57318;56.232;43.944;2022-07-06T02:52:50;6.18;;;2.53;;
69979;SDS011;57318;56.232;43.944;2022-07-06T02:55:16;4.28;;;2.67;;
69979;SDS011;57318;56.232;43.944;2022-07-06T02:57:42;7.03;;;2.70;;
69979;SDS011;57318;56.232;43.944;2022-07-06T03:00:08;3.13;;;2.47;;
69979;SDS011;57318;56.232;43.944;2022-07-06T03:02:35;2.40;;;2.20;;
69979;SDS011;57318;56.232;43.944;2022-07-06T03:05:01;3.17;;;2.58;;
69979;SDS011;57318;56.232;43.944;2022-07-06T03:07:29;4.38;;;2.47;;
69979;SDS011;57318;56.232;43.944;2022-07-06T03:09:55;3.88;;;2.72;;
69979;SDS011;57318;56.232;43.944;2022-07-06T03:12:20;2.30;;;2.10;;
69979;SDS011;57318;56.232;43.944;2022-07-06T03:14:46;4.10;;;2.70;;
69979;SDS011;57318;56.232;43.944;2022-07-06T03:17:12;5.07;;;2.47;;
69979;SDS011;57318;56.232;43.944;2022-07-06T03:19:37;4.43;;;2.57;;
69979;SDS011;57318;56.232;43.944;2022-07-06T03:22:03;4.82;;;2.28;;
69979;SDS011;57318;56.232;43.944;2022-07-06T03:24:29;3.92;;;2.78;;
69979;SDS011;57318;56.232;43.944;2022-07-06T03:26:55;3.23;;;2.33;;
69979;SDS011;57318;56.232;43.944;2022-07-06T03:29:20;3.93;;;2.80;;
69979;SDS011;57318;56.232;43.944;2022-07-06T03:31:46;3.47;;;2.70;;
69979;SDS011;57318;56.232;43.944;2022-07-06T03:34:12;3.63;;;2.47;;
69979;SDS011;57318;56.232;43.944;2022-07-06T03:36:38;6.20;;;2.73;;
69979;SDS011;57318;56.232;43.944;2022-07-06T03:39:04;4.30;;;3.10;;
69979;SDS011;57318;56.232;43.944;2022-07-06T03:41:30;7.55;;;3.10;;
69979;SDS011;57318;56.232;43.944;2022-07-06T03:43:57;4.82;;;2.70;;
69979;SDS011;57318;56.232;43.944;2022-07-06T03:46:23;4.03;;;2.80;;
69979;SDS011;57318;56.232;43.944;2022-07-06T03:48:49;6.45;;;2.83;;
69979;SDS011;57318;56.232;43.944;2022-07-06T03:51:15;7.37;;;2.93;;
69979;SDS011;57318;56.232;43.944;2022-07-06T03:53:40;4.30;;;2.57;;
69979;SDS011;57318;56.232;43.944;2022-07-06T03:56:06;4.93;;;3.30;;
69979;SDS011;57318;56.232;43.944;2022-07-06T03:58:50;5.65;;;3.17;;
69979;SDS011;57318;56.232;43.944;2022-07-06T04:01:16;6.50;;;3.10;;
69979;SDS011;57318;56.232;43.944;2022-07-06T04:03:42;3.90;;;2.90;;
69979;SDS011;57318;56.232;43.944;2022-07-06T04:06:07;5.60;;;2.90;;
69979;SDS011;57318;56.232;43.944;2022-07-06T04:08:33;6.40;;;3.27;;
69979;SDS011;57318;56.232;43.944;2022-07-06T04:10:59;5.73;;;3.30;;
69979;SDS011;57318;56.232;43.944;2022-07-06T04:13:24;6.23;;;3.33;;
69979;SDS011;57318;56.232;43.944;2022-07-06T04:15:52;3.15;;;2.83;;
69979;SDS011;57318;56.232;43.944;2022-07-06T04:18:18;5.77;;;2.97;;
69979;SDS011;57318;56.232;43.944;2022-07-06T04:20:44;5.53;;;3.00;;
69979;SDS011;57318;56.232;43.944;2022-07-06T04:23:10;5.80;;;2.93;;
69979;SDS011;57318;56.232;43.944;2022-07-06T04:25:36;6.80;;;3.78;;
69979;SDS011;57318;56.232;43.944;2022-07-06T04:28:02;4.50;;;3.30;;
69979;SDS011;57318;56.232;43.944;2022-07-06T04:30:28;7.55;;;3.65;;
69979;SDS011;57318;56.232;43.944;2022-07-06T04:32:54;5.57;;;3.30;;
69979;SDS011;57318;56.232;43.944;2022-07-06T04:35:20;7.90;;;3.60;;
69979;SDS011;57318;56.232;43.944;2022-07-06T04:37:46;6.63;;;3.75;;
69979;SDS011;57318;56.232;43.944;2022-07-06T04:40:13;6.00;;;3.53;;
69979;SDS011;57318;56.232;43.944;2022-07-06T04:42:39;6.45;;;4.05;;
69979;SDS011;57318;56.232;43.944;2022-07-06T04:45:05;5.55;;;3.60;;
69979;SDS011;57318;56.232;43.944;2022-07-06T04:47:31;5.63;;;3.53;;
69979;SDS011;57318;56.232;43.944;2022-07-06T04:49:57;7.22;;;3.53;;
69979;SDS011;57318;56.232;43.944;2022-07-06T04:52:23;6.87;;;3.40;;
69979;SDS011;57318;56.232;43.944;2022-07-06T04:54:48;3.27;;;2.90;;
69979;SDS011;57318;56.232;43.944;2022-07-06T04:57:14;5.80;;;3.77;;
69979;SDS011;57318;56.232;43.944;2022-07-06T04:59:40;7.53;;;3.50;;
69979;SDS011;57318;56.232;43.944;2022-07-06T05:02:05;6.63;;;3.50;;
69979;SDS011;57318;56.232;43.944;2022-07-06T05:04:31;6.55;;;3.70;;
69979;SDS011;57318;56.232;43.944;2022-07-06T05:06:58;6.03;;;3.28;;
69979;SDS011;57318;56.232;43.944;2022-07-06T05:09:24;4.80;;;3.33;;
69979;SDS011;57318;56.232;43.944;2022-07-06T05:11:50;4.68;;;2.90;;
69979;SDS011;57318;56.232;43.944;2022-07-06T05:14:16;5.70;;;3.13;;
69979;SDS011;57318;56.232;43.944;2022-07-06T05:16:41;6.07;;;3.27;;
69979;SDS011;57318;56.232;43.944;2022-07-06T05:19:07;5.17;;;3.53;;
69979;SDS011;57318;56.232;43.944;2022-07-06T05:21:33;5.20;;;3.07;;
69979;SDS011;57318;56.232;43.944;2022-07-06T05:23:58;4.43;;;3.33;;
69979;SDS011;57318;56.232;43.944;2022-07-06T05:26:24;4.17;;;3.43;;
69979;SDS011;57318;56.232;43.944;2022-07-06T05:28:50;3.60;;;3.30;;
69979;SDS011;57318;56.232;43.944;2022-07-06T05:31:16;7.67;;;3.40;;
69979;SDS011;57318;56.232;43.944;2022-07-06T05:33:41;5.00;;;3.37;;
69979;SDS011;57318;56.232;43.944;2022-07-06T05:36:07;4.28;;;3.10;;
69979;SDS011;57318;56.232;43.944;2022-07-06T05:38:33;4.37;;;3.30;;
69979;SDS011;57318;56.232;43.944;2022-07-06T05:40:58;5.03;;;3.27;;
69979;SDS011;57318;56.232;43.944;2022-07-06T05:43:24;4.07;;;3.07;;
69979;SDS011;57318;56.232;43.944;2022-07-06T05:45:50;5.47;;;3.55;;
69979;SDS011;57318;56.232;43.944;2022-07-06T05:48:16;4.40;;;3.20;;
69979;SDS011;57318;56.232;43.944;2022-07-06T05:51:00;4.47;;;3.40;;
69979;SDS011;57318;56.232;43.944;2022-07-06T05:53:25;6.03;;;3.60;;
69979;SDS011;57318;56.232;43.944;2022-07-06T05:55:51;3.65;;;3.30;;
69979;SDS011;57318;56.232;43.944;2022-07-06T05:58:17;7.75;;;3.85;;
69979;SDS011;57318;56.232;43.944;2022-07-06T06:00:43;4.37;;;3.43;;
69979;SDS011;57318;56.232;43.944;2022-07-06T06:03:09;8.43;;;3.75;;
69979;SDS011;57318;56.232;43.944;2022-07-06T06:05:35;4.03;;;3.40;;
69979;SDS011;57318;56.232;43.944;2022-07-06T06:08:02;5.22;;;3.25;;
69979;SDS011;57318;56.232;43.944;2022-07-06T06:10:28;6.70;;;3.35;;
69979;SDS011;57318;56.232;43.944;2022-07-06T06:12:54;5.57;;;3.55;;
69979;SDS011;57318;56.232;43.944;2022-07-06T06:15:20;6.27;;;4.00;;
69979;SDS011;57318;56.232;43.944;2022-07-06T06:17:45;4.40;;;3.80;;
69979;SDS011;57318;56.232;43.944;2022-07-06T06:20:12;7.18;;;3.70;;
69979;SDS011;57318;56.232;43.944;2022-07-06T06:22:48;5.28;;;3.85;;
69979;SDS011;57318;56.232;43.944;2022-07-06T06:25:19;3.20;;;2.90;;
69979;SDS011;57318;56.232;43.944;2022-07-06T06:27:47;6.35;;;3.63;;
69979;SDS011;57318;56.232;43.944;2022-07-06T06:30:12;4.70;;;3.20;;
69979;SDS011;57318;56.232;43.944;2022-07-06T06:32:39;3.75;;;3.45;;
69979;SDS011;57318;56.232;43.944;2022-07-06T06:35:05;5.70;;;3.67;;
69979;SDS011;57318;56.232;43.944;2022-07-06T06:39:57;4.95;;;3.55;;
69979;SDS011;57318;56.232;43.944;2022-07-06T06:42:23;5.53;;;3.33;;
69979;SDS011;57318;56.232;43.944;2022-07-06T06:44:49;6.77;;;3.37;;
69979;SDS011;57318;56.232;43.944;2022-07-06T06:47:14;6.17;;;3.17;;
69979;SDS011;57318;56.232;43.944;2022-07-06T06:49:40;3.47;;;2.88;;
69979;SDS011;57318;56.232;43.944;2022-07-06T06:52:06;3.92;;;3.17;;
69979;SDS011;57318;56.232;43.944;2022-07-06T06:54:31;4.03;;;2.77;;
69979;SDS011;57318;56.232;43.944;2022-07-06T06:56:57;5.80;;;3.30;;
69979;SDS011;57318;56.232;43.944;2022-07-06T06:59:22;4.23;;;3.50;;
69979;SDS011;57318;56.232;43.944;2022-07-06T07:01:48;4.10;;;3.47;;
69979;SDS011;57318;56.232;43.944;2022-07-06T07:04:14;9.95;;;3.42;;
69979;SDS011;57318;56.232;43.944;2022-07-06T07:06:40;4.22;;;3.05;;
69979;SDS011;57318;56.232;43.944;2022-07-06T07:09:06;6.38;;;3.40;;
69979;SDS011;57318;56.232;43.944;2022-07-06T07:11:32;7.25;;;3.90;;
69979;SDS011;57318;56.232;43.944;2022-07-06T07:13:57;6.15;;;3.63;;
69979;SDS011;57318;56.232;43.944;2022-07-06T07:16:25;4.97;;;3.50;;
69979;SDS011;57318;56.232;43.944;2022-07-06T07:21:16;4.35;;;3.40;;
69979;SDS011;57318;56.232;43.944;2022-07-06T07:23:42;5.75;;;3.90;;
69979;SDS011;57318;56.232;43.944;2022-07-06T07:26:07;4.15;;;3.65;;
69979;SDS011;57318;56.232;43.944;2022-07-06T07:28:33;5.03;;;3.60;;
69979;SDS011;57318;56.232;43.944;2022-07-06T07:30:59;5.40;;;3.55;;
69979;SDS011;57318;56.232;43.944;2022-07-06T07:33:24;4.28;;;3.70;;
69979;SDS011;57318;56.232;43.944;2022-07-06T07:35:50;5.72;;;4.20;;
69979;SDS011;57318;56.232;43.944;2022-07-06T07:38:16;7.95;;;3.83;;
69979;SDS011;57318;56.232;43.944;2022-07-06T07:40:41;7.13;;;4.35;;
69979;SDS011;57318;56.232;43.944;2022-07-06T07:43:10;10.35;;;4.82;;
69979;SDS011;57318;56.232;43.944;2022-07-06T07:45:37;7.07;;;4.72;;
69979;SDS011;57318;56.232;43.944;2022-07-06T07:48:03;6.28;;;4.85;;
69979;SDS011;57318;56.232;43.944;2022-07-06T07:50:30;7.03;;;4.60;;
69979;SDS011;57318;56.232;43.944;2022-07-06T07:52:57;5.20;;;4.70;;
69979;SDS011;57318;56.232;43.944;2022-07-06T07:55:23;8.38;;;4.65;;
69979;SDS011;57318;56.232;43.944;2022-07-06T07:57:49;8.13;;;4.25;;
69979;SDS011;57318;56.232;43.944;2022-07-06T08:00:20;7.97;;;4.30;;
69979;SDS011;57318;56.232;43.944;2022-07-06T08:02:46;5.22;;;4.70;;
69979;SDS011;57318;56.232;43.944;2022-07-06T08:05:13;6.35;;;4.50;;
69979;SDS011;57318;56.232;43.944;2022-07-06T08:07:41;5.10;;;4.60;;
69979;SDS011;57318;56.232;43.944;2022-07-06T08:10:09;5.38;;;4.90;;
69979;SDS011;57318;56.232;43.944;2022-07-06T08:12:35;5.95;;;5.30;;
69979;SDS011;57318;56.232;43.944;2022-07-06T08:15:02;7.63;;;5.22;;
69979;SDS011;57318;56.232;43.944;2022-07-06T08:17:30;6.60;;;4.68;;
69979;SDS011;57318;56.232;43.944;2022-07-06T08:19:56;7.28;;;4.78;;
69979;SDS011;57318;56.232;43.944;2022-07-06T08:22:22;6.88;;;4.80;;
69979;SDS011;57318;56.232;43.944;2022-07-06T08:24:48;7.85;;;5.28;;
69979;SDS011;57318;56.232;43.944;2022-07-06T08:27:20;7.07;;;4.85;;
69979;SDS011;57318;56.232;43.944;2022-07-06T08:29:46;5.70;;;5.20;;
69979;SDS011;57318;56.232;43.944;2022-07-06T08:32:11;5.93;;;5.40;;
69979;SDS011;57318;56.232;43.944;2022-07-06T08:34:37;8.90;;;5.90;;
69979;SDS011;57318;56.232;43.944;2022-07-06T08:37:03;6.40;;;5.80;;
69979;SDS011;57318;56.232;43.944;2022-07-06T08:39:29;5.88;;;5.38;;
69979;SDS011;57318;56.232;43.944;2022-07-06T08:41:55;6.82;;;5.82;;
69979;SDS011;57318;56.232;43.944;2022-07-06T08:44:24;7.90;;;5.90;;
69979;SDS011;57318;56.232;43.944;2022-07-06T08:46:52;6.28;;;5.68;;
69979;SDS011;57318;56.232;43.944;2022-07-06T08:49:21;6.60;;;6.07;;
69979;SDS011;57318;56.232;43.944;2022-07-06T08:51:47;7.72;;;6.55;;
69979;SDS011;57318;56.232;43.944;2022-07-06T08:54:13;6.93;;;6.28;;
69979;SDS011;57318;56.232;43.944;2022-07-06T08:56:39;7.90;;;6.15;;
69979;SDS011;57318;56.232;43.944;2022-07-06T08:59:05;7.38;;;6.10;;
69979;SDS011;57318;56.232;43.944;2022-07-06T09:01:34;6.88;;;6.38;;
69979;SDS011;57318;56.232;43.944;2022-07-06T09:04:05;7.32;;;6.05;;
69979;SDS011;57318;56.232;43.944;2022-07-06T09:06:32;6.60;;;5.60;;
69979;SDS011;57318;56.232;43.944;2022-07-06T09:08:59;6.22;;;5.70;;
69979;SDS011;57318;56.232;43.944;2022-07-06T09:11:30;6.78;;;5.80;;
69979;SDS011;57318;56.232;43.944;2022-07-06T09:13:56;8.05;;;6.07;;
69979;SDS011;57318;56.232;43.944;2022-07-06T09:16:26;8.73;;;6.22;;
69979;SDS011;57318;56.232;43.944;2022-07-06T09:18:55;7.72;;;6.10;;
69979;SDS011;57318;56.232;43.944;2022-07-06T09:21:25;8.82;;;6.07;;
69979;SDS011;57318;56.232;43.944;2022-07-06T09:23:55;9.77;;;6.50;;
69979;SDS011;57318;56.232;43.944;2022-07-06T09:26:22;7.75;;;6.70;;
69979;SDS011;57318;56.232;43.944;2022-07-06T09:28:49;7.30;;;6.60;;
69979;SDS011;57318;56.232;43.944;2022-07-06T09:31:15;8.40;;;6.47;;
69979;SDS011;57318;56.232;43.944;2022-07-06T09:33:57;7.45;;;6.78;;
69979;SDS011;57318;56.232;43.944;2022-07-06T09:36:43;11.18;;;6.53;;
69979;SDS011;57318;56.232;43.944;2022-07-06T09:41:47;6.95;;;6.25;;
69979;SDS011;57318;56.232;43.944;2022-07-06T09:44:21;7.32;;;6.57;;
69979;SDS011;57318;56.232;43.944;2022-07-06T09:46:48;7.07;;;6.55;;
69979;SDS011;57318;56.232;43.944;2022-07-06T09:49:21;6.90;;;6.20;;
69979;SDS011;57318;56.232;43.944;2022-07-06T09:51:48;7.20;;;6.50;;
69979;SDS011;57318;56.232;43.944;2022-07-06T09:54:15;7.80;;;6.35;;
69979;SDS011;57318;56.232;43.944;2022-07-06T09:56:42;6.47;;;5.88;;
69979;SDS011;57318;56.232;43.944;2022-07-06T09:59:13;6.47;;;5.97;;
69979;SDS011;57318;56.232;43.944;2022-07-06T10:01:40;6.53;;;5.88;;
69979;SDS011;57318;56.232;43.944;2022-07-06T10:04:07;7.90;;;5.88;;
69979;SDS011;57318;56.232;43.944;2022-07-06T10:06:34;7.38;;;5.90;;
69979;SDS011;57318;56.232;43.944;2022-07-06T10:09:00;6.78;;;6.18;;
69979;SDS011;57318;56.232;43.944;2022-07-06T10:11:30;7.97;;;5.95;;
69979;SDS011;57318;56.232;43.944;2022-07-06T10:13:59;7.13;;;6.00;;
69979;SDS011;57318;56.232;43.944;2022-07-06T10:16:28;6.55;;;5.90;;
69979;SDS011;57318;56.232;43.944;2022-07-06T10:18:54;7.47;;;5.90;;
69979;SDS011;57318;56.232;43.944;2022-07-06T10:21:22;8.13;;;5.97;;
69979;SDS011;57318;56.232;43.944;2022-07-06T10:23:49;8.15;;;5.50;;
69979;SDS011;57318;56.232;43.944;2022-07-06T10:26:16;6.32;;;5.72;;
69979;SDS011;57318;56.232;43.944;2022-07-06T10:28:42;6.75;;;5.97;;
69979;SDS011;57318;56.232;43.944;2022-07-06T10:31:08;6.40;;;5.43;;
69979;SDS011;57318;56.232;43.944;2022-07-06T10:33:35;6.80;;;6.10;;
69979;SDS011;57318;56.232;43.944;2022-07-06T10:36:02;6.40;;;5.80;;
69979;SDS011;57318;56.232;43.944;2022-07-06T10:38:32;6.32;;;5.75;;
69979;SDS011;57318;56.232;43.944;2022-07-06T10:41:05;7.72;;;5.68;;
69979;SDS011;57318;56.232;43.944;2022-07-06T10:43:33;6.15;;;5.47;;
69979;SDS011;57318;56.232;43.944;2022-07-06T10:46:10;6.88;;;5.80;;
69979;SDS011;57318;56.232;43.944;2022-07-06T10:48:37;6.05;;;5.55;;
69979;SDS011;57318;56.232;43.944;2022-07-06T10:51:04;6.40;;;5.80;;
69979;SDS011;57318;56.232;43.944;2022-07-06T10:53:32;6.70;;;6.15;;
69979;SDS011;57318;56.232;43.944;2022-07-06T10:56:00;5.93;;;5.43;;
69979;SDS011;57318;56.232;43.944;2022-07-06T11:01:11;6.47;;;5.95;;
69979;SDS011;57318;56.232;43.944;2022-07-06T11:08:49;6.78;;;6.15;;
69979;SDS011;57318;56.232;43.944;2022-07-06T11:14:00;6.00;;;5.57;;
69979;SDS011;57318;56.232;43.944;2022-07-06T11:16:38;7.15;;;6.07;;
69979;SDS011;57318;56.232;43.944;2022-07-06T11:19:26;6.50;;;6.05;;
69979;SDS011;57318;56.232;43.944;2022-07-06T11:24:27;6.10;;;5.57;;
69979;SDS011;57318;56.232;43.944;2022-07-06T11:26:56;6.10;;;5.60;;
69979;SDS011;57318;56.232;43.944;2022-07-06T11:29:23;6.53;;;5.88;;
69979;SDS011;57318;56.232;43.944;2022-07-06T11:31:50;6.93;;;5.88;;
69979;SDS011;57318;56.232;43.944;2022-07-06T11:34:19;6.85;;;6.25;;
69979;SDS011;57318;56.232;43.944;2022-07-06T11:36:49;6.90;;;6.30;;
69979;SDS011;57318;56.232;43.944;2022-07-06T11:39:19;9.00;;;6.20;;
69979;SDS011;57318;56.232;43.944;2022-07-06T11:41:45;7.13;;;6.40;;
69979;SDS011;57318;56.232;43.944;2022-07-06T11:44:10;7.03;;;6.38;;
69979;SDS011;57318;56.232;43.944;2022-07-06T11:46:36;7.00;;;6.30;;
69979;SDS011;57318;56.232;43.944;2022-07-06T11:49:06;8.48;;;6.78;;
69979;SDS011;57318;56.232;43.944;2022-07-06T11:51:34;7.03;;;6.43;;
69979;SDS011;57318;56.232;43.944;2022-07-06T11:54:03;7.47;;;6.88;;
69979;SDS011;57318;56.232;43.944;2022-07-06T11:56:34;6.70;;;6.20;;
69979;SDS011;57318;56.232;43.944;2022-07-06T11:59:00;7.07;;;6.38;;
69979;SDS011;57318;56.232;43.944;2022-07-06T12:01:27;7.20;;;6.60;;
69979;SDS011;57318;56.232;43.944;2022-07-06T12:03:57;7.32;;;6.60;;
69979;SDS011;57318;56.232;43.944;2022-07-06T12:06:25;9.02;;;6.20;;
69979;SDS011;57318;56.232;43.944;2022-07-06T12:08:58;6.93;;;6.22;;
69979;SDS011;57318;56.232;43.944;2022-07-06T12:11:26;7.95;;;6.68;;
69979;SDS011;57318;56.232;43.944;2022-07-06T12:14:00;7.35;;;6.53;;
69979;SDS011;57318;56.232;43.944;2022-07-06T12:16:32;6.78;;;6.22;;
69979;SDS011;57318;56.232;43.944;2022-07-06T12:18:59;7.40;;;6.10;;
69979;SDS011;57318;56.232;43.944;2022-07-06T12:21:26;6.82;;;6.22;;
69979;SDS011;57318;56.232;43.944;2022-07-06T12:23:53;6.95;;;6.32;;
69979;SDS011;57318;56.232;43.944;2022-07-06T12:26:21;6.70;;;6.10;;
69979;SDS011;57318;56.232;43.944;2022-07-06T12:29:00;7.50;;;6.90;;
69979;SDS011;57318;56.232;43.944;2022-07-06T12:31:38;6.82;;;6.22;;
69979;SDS011;57318;56.232;43.944;2022-07-06T12:34:11;7.20;;;6.60;;
69979;SDS011;57318;56.232;43.944;2022-07-06T12:36:45;7.03;;;6.50;;
69979;SDS011;57318;56.232;43.944;2022-07-06T12:39:16;7.15;;;6.45;;
69979;SDS011;57318;56.232;43.944;2022-07-06T12:41:53;6.75;;;6.05;;
69979;SDS011;57318;56.232;43.944;2022-07-06T12:44:25;7.03;;;6.32;;
69979;SDS011;57318;56.232;43.944;2022-07-06T12:47:01;8.93;;;6.30;;
69979;SDS011;57318;56.232;43.944;2022-07-06T12:49:29;6.32;;;5.72;;
69979;SDS011;57318;56.232;43.944;2022-07-06T12:51:56;6.78;;;6.28;;
69979;SDS011;57318;56.232;43.944;2022-07-06T12:54:28;6.57;;;5.97;;
69979;SDS011;57318;56.232;43.944;2022-07-06T12:59:32;7.43;;;5.95;;
69979;SDS011;57318;56.232;43.944;2022-07-06T13:02:00;7.65;;;5.85;;
69979;SDS011;57318;56.232;43.944;2022-07-06T13:04:29;7.30;;;6.60;;
69979;SDS011;57318;56.232;43.944;2022-07-06T13:06:57;6.97;;;6.38;;
69979;SDS011;57318;56.232;43.944;2022-07-06T13:09:24;7.85;;;6.53;;
69979;SDS011;57318;56.232;43.944;2022-07-06T13:11:50;8.77;;;7.00;;
69979;SDS011;57318;56.232;43.944;2022-07-06T13:14:16;7.65;;;6.85;;
69979;SDS011;57318;56.232;43.944;2022-07-06T13:16:43;7.63;;;7.03;;
69979;SDS011;57318;56.232;43.944;2022-07-06T13:19:10;7.53;;;6.78;;
69979;SDS011;57318;56.232;43.944;2022-07-06T13:21:36;7.07;;;6.43;;
69979;SDS011;57318;56.232;43.944;2022-07-06T13:24:02;10.68;;;6.78;;
69979;SDS011;57318;56.232;43.944;2022-07-06T13:26:29;9.35;;;6.70;;
69979;SDS011;57318;56.232;43.944;2022-07-06T13:28:58;7.88;;;6.85;;
69979;SDS011;57318;56.232;43.944;2022-07-06T13:31:25;9.93;;;6.82;;
69979;SDS011;57318;56.232;43.944;2022-07-06T13:33:51;7.53;;;6.82;;
69979;SDS011;57318;56.232;43.944;2022-07-06T13:36:17;8.23;;;6.93;;
69979;SDS011;57318;56.232;43.944;2022-07-06T13:38:42;7.60;;;6.80;;
69979;SDS011;57318;56.232;43.944;2022-07-06T13:41:08;8.80;;;7.78;;
69979;SDS011;57318;56.232;43.944;2022-07-06T13:43:34;9.30;;;6.90;;
69979;SDS011;57318;56.232;43.944;2022-07-06T13:46:03;11.73;;;7.32;;
69979;SDS011;57318;56.232;43.944;2022-07-06T13:48:30;9.38;;;6.85;;
69979;SDS011;57318;56.232;43.944;2022-07-06T13:50:56;7.40;;;6.70;;
69979;SDS011;57318;56.232;43.944;2022-07-06T13:53:22;7.80;;;7.03;;
69979;SDS011;57318;56.232;43.944;2022-07-06T13:55:48;10.02;;;7.18;;
69979;SDS011;57318;56.232;43.944;2022-07-06T13:58:13;10.07;;;6.90;;
69979;SDS011;57318;56.232;43.944;2022-07-06T14:00:39;7.28;;;6.57;;
69979;SDS011;57318;56.232;43.944;2022-07-06T14:03:04;8.90;;;7.22;;
69979;SDS011;57318;56.232;43.944;2022-07-06T14:05:30;10.80;;;7.40;;
69979;SDS011;57318;56.232;43.944;2022-07-06T14:07:56;10.98;;;7.13;;
69979;SDS011;57318;56.232;43.944;2022-07-06T14:10:23;12.15;;;7.57;;
69979;SDS011;57318;56.232;43.944;2022-07-06T14:12:49;8.30;;;6.78;;
69979;SDS011;57318;56.232;43.944;2022-07-06T14:15:14;7.20;;;6.60;;
69979;SDS011;57318;56.232;43.944;2022-07-06T14:17:40;7.57;;;6.82;;
69979;SDS011;57318;56.232;43.944;2022-07-06T14:20:06;7.32;;;6.55;;
69979;SDS011;57318;56.232;43.944;2022-07-06T14:22:32;8.90;;;7.28;;
69979;SDS011;57318;56.232;43.944;2022-07-06T14:24:58;8.73;;;7.32;;
69979;SDS011;57318;56.232;43.944;2022-07-06T14:27:24;12.02;;;7.05;;
69979;SDS011;57318;56.232;43.944;2022-07-06T14:29:50;7.80;;;7.00;;
69979;SDS011;57318;56.232;43.944;2022-07-06T14:32:15;7.32;;;6.65;;
69979;SDS011;57318;56.232;43.944;2022-07-06T14:34:41;9.32;;;6.90;;
69979;SDS011;57318;56.232;43.944;2022-07-06T14:37:07;8.90;;;7.10;;
69979;SDS011;57318;56.232;43.944;2022-07-06T14:39:33;8.70;;;6.90;;
69979;SDS011;57318;56.232;43.944;2022-07-06T14:41:59;7.65;;;6.93;;
69979;SDS011;57318;56.232;43.944;2022-07-06T14:44:25;7.80;;;7.10;;
69979;SDS011;57318;56.232;43.944;2022-07-06T14:46:52;8.00;;;7.18;;
69979;SDS011;57318;56.232;43.944;2022-07-06T14:49:17;9.32;;;7.20;;
69979;SDS011;57318;56.232;43.944;2022-07-06T14:51:43;8.00;;;7.20;;
69979;SDS011;57318;56.232;43.944;2022-07-06T14:56:35;10.25;;;7.70;;
69979;SDS011;57318;56.232;43.944;2022-07-06T14:59:01;8.70;;;7.72;;
69979;SDS011;57318;56.232;43.944;2022-07-06T15:01:27;8.32;;;7.45;;